sensor_id;sensor_type;location;lat;lon;timestamp;temperature;humidity
20246;DHT22;10281;54.406;18.556;2022-07-22T00:01:25;20.60;99.90
20246;DHT22;10281;54.406;18.556;2022-07-22T00:03:52;20.60;99.90
20246;DHT22;10281;54.406;18.556;2022-07-22T00:06:19;20.60;99.90
20246;DHT22;10281;54.406;18.556;2022-07-22T00:08:45;20.60;99.90
20246;DHT22;10281;54.406;18.556;2022-07-22T00:11:12;20.50;99.90
20246;DHT22;10281;54.406;18.556;2022-07-22T00:13:39;20.50;99.90
20246;DHT22;10281;54.406;18.556;2022-07-22T00:16:06;20.40;99.90
20246;DHT22;10281;54.406;18.556;2022-07-22T00:18:33;20.40;99.90
20246;DHT22;10281;54.406;18.556;2022-07-22T00:20:59;20.40;99.90
20246;DHT22;10281;54.406;18.556;2022-07-22T00:23:26;20.30;99.90
20246;DHT22;10281;54.406;18.556;2022-07-22T00:25:53;20.30;99.90
20246;DHT22;10281;54.406;18.556;2022-07-22T00:28:19;20.30;99.90
20246;DHT22;10281;54.406;18.556;2022-07-22T00:30:46;20.20;99.90
20246;DHT22;10281;54.406;18.556;2022-07-22T00:33:13;20.20;99.90
20246;DHT22;10281;54.406;18.556;2022-07-22T00:35:39;20.10;99.90
20246;DHT22;10281;54.406;18.556;2022-07-22T00:38:06;20.10;99.90
20246;DHT22;10281;54.406;18.556;2022-07-22T00:40:33;20.10;99.90
20246;DHT22;10281;54.406;18.556;2022-07-22T00:43:00;20.00;99.90
20246;DHT22;10281;54.406;18.556;2022-07-22T00:45:27;20.00;99.90
20246;DHT22;10281;54.406;18.556;2022-07-22T00:47:54;20.00;99.90
20246;DHT22;10281;54.406;18.556;2022-07-22T00:50:20;20.00;99.90
20246;DHT22;10281;54.406;18.556;2022-07-22T00:52:49;19.90;99.90
20246;DHT22;10281;54.406;18.556;2022-07-22T00:55:16;19.90;99.90
20246;DHT22;10281;54.406;18.556;2022-07-22T00:57:43;19.90;99.90
20246;DHT22;10281;54.406;18.556;2022-07-22T01:00:16;19.80;99.90
20246;DHT22;10281;54.406;18.556;2022-07-22T01:02:42;19.80;99.90
20246;DHT22;10281;54.406;18.556;2022-07-22T01:05:08;19.80;99.90
20246;DHT22;10281;54.406;18.556;2022-07-22T01:07:37;19.70;99.90
20246;DHT22;10281;54.406;18.556;2022-07-22T01:10:05;19.70;99.90
20246;DHT22;10281;54.406;18.556;2022-07-22T01:12:32;19.70;99.90
20246;DHT22;10281;54.406;18.556;2022-07-22T01:14:59;19.70;99.90
20246;DHT22;10281;54.406;18.556;2022-07-22T01:17:25;19.70;99.90
20246;DHT22;10281;54.406;18.556;2022-07-22T01:19:52;19.60;99.90
20246;DHT22;10281;54.406;18.556;2022-07-22T01:22:19;19.60;99.90
20246;DHT22;10281;54.406;18.556;2022-07-22T01:24:46;19.60;99.90
20246;DHT22;10281;54.406;18.556;2022-07-22T01:27:13;19.60;99.90
20246;DHT22;10281;54.406;18.556;2022-07-22T01:29:39;19.50;99.90
20246;DHT22;10281;54.406;18.556;2022-07-22T01:32:06;19.50;99.90
20246;DHT22;10281;54.406;18.556;2022-07-22T01:34:33;19.50;99.90
20246;DHT22;10281;54.406;18.556;2022-07-22T01:36:59;19.50;99.90
20246;DHT22;10281;54.406;18.556;2022-07-22T01:39:26;19.50;99.90
20246;DHT22;10281;54.406;18.556;2022-07-22T01:41:52;19.50;99.90
20246;DHT22;10281;54.406;18.556;2022-07-22T01:44:19;19.40;99.90
20246;DHT22;10281;54.406;18.556;2022-07-22T01:46:46;19.40;99.90
20246;DHT22;10281;54.406;18.556;2022-07-22T01:49:12;19.40;99.90
20246;DHT22;10281;54.406;18.556;2022-07-22T01:51:41;19.40;99.90
20246;DHT22;10281;54.406;18.556;2022-07-22T01:54:07;19.30;99.90
20246;DHT22;10281;54.406;18.556;2022-07-22T01:56:34;19.30;99.90
20246;DHT22;10281;54.406;18.556;2022-07-22T01:59:01;19.30;99.90
20246;DHT22;10281;54.406;18.556;2022-07-22T02:01:27;19.20;99.90
20246;DHT22;10281;54.406;18.556;2022-07-22T02:03:54;19.20;99.90
20246;DHT22;10281;54.406;18.556;2022-07-22T02:06:21;19.20;99.90
20246;DHT22;10281;54.406;18.556;2022-07-22T02:08:47;19.20;99.90
20246;DHT22;10281;54.406;18.556;2022-07-22T02:11:14;19.10;99.90
20246;DHT22;10281;54.406;18.556;2022-07-22T02:13:40;19.10;99.90
20246;DHT22;10281;54.406;18.556;2022-07-22T02:16:07;19.10;99.90
20246;DHT22;10281;54.406;18.556;2022-07-22T02:18:34;19.20;99.90
20246;DHT22;10281;54.406;18.556;2022-07-22T02:21:00;19.10;99.90
20246;DHT22;10281;54.406;18.556;2022-07-22T02:23:27;19.10;99.90
20246;DHT22;10281;54.406;18.556;2022-07-22T02:25:54;19.00;99.90
20246;DHT22;10281;54.406;18.556;2022-07-22T02:28:20;19.00;99.90
20246;DHT22;10281;54.406;18.556;2022-07-22T02:30:47;19.00;99.90
20246;DHT22;10281;54.406;18.556;2022-07-22T02:33:13;18.90;99.90
20246;DHT22;10281;54.406;18.556;2022-07-22T02:35:40;18.90;99.90
20246;DHT22;10281;54.406;18.556;2022-07-22T02:38:07;18.90;99.90
20246;DHT22;10281;54.406;18.556;2022-07-22T02:40:34;18.80;99.90
20246;DHT22;10281;54.406;18.556;2022-07-22T02:43:01;18.80;99.90
20246;DHT22;10281;54.406;18.556;2022-07-22T02:45:27;18.80;99.90
20246;DHT22;10281;54.406;18.556;2022-07-22T02:47:56;18.80;99.90
20246;DHT22;10281;54.406;18.556;2022-07-22T02:50:23;18.70;99.90
20246;DHT22;10281;54.406;18.556;2022-07-22T02:52:50;18.70;99.90
20246;DHT22;10281;54.406;18.556;2022-07-22T02:55:17;18.70;99.90
20246;DHT22;10281;54.406;18.556;2022-07-22T02:57:44;18.60;99.90
20246;DHT22;10281;54.406;18.556;2022-07-22T03:00:12;18.60;99.90
20246;DHT22;10281;54.406;18.556;2022-07-22T03:02:39;18.60;99.90
20246;DHT22;10281;54.406;18.556;2022-07-22T03:05:06;18.60;99.90
20246;DHT22;10281;54.406;18.556;2022-07-22T03:07:33;18.60;99.90
20246;DHT22;10281;54.406;18.556;2022-07-22T03:10:00;18.60;99.90
20246;DHT22;10281;54.406;18.556;2022-07-22T03:12:27;18.60;99.90
20246;DHT22;10281;54.406;18.556;2022-07-22T03:14:54;18.60;99.90
20246;DHT22;10281;54.406;18.556;2022-07-22T03:17:21;18.60;99.90
20246;DHT22;10281;54.406;18.556;2022-07-22T03:19:47;18.60;99.90
20246;DHT22;10281;54.406;18.556;2022-07-22T03:22:14;18.60;99.90
20246;DHT22;10281;54.406;18.556;2022-07-22T03:24:41;18.60;99.90
20246;DHT22;10281;54.406;18.556;2022-07-22T03:27:07;18.60;99.90
20246;DHT22;10281;54.406;18.556;2022-07-22T03:29:34;18.70;99.90
20246;DHT22;10281;54.406;18.556;2022-07-22T03:32:01;18.70;99.90
20246;DHT22;10281;54.406;18.556;2022-07-22T03:34:27;18.70;99.90
20246;DHT22;10281;54.406;18.556;2022-07-22T03:36:54;18.70;99.90
20246;DHT22;10281;54.406;18.556;2022-07-22T03:39:20;18.70;99.90
20246;DHT22;10281;54.406;18.556;2022-07-22T03:41:47;18.80;99.90
20246;DHT22;10281;54.406;18.556;2022-07-22T03:44:14;18.80;99.90
20246;DHT22;10281;54.406;18.556;2022-07-22T03:46:41;18.80;99.90
20246;DHT22;10281;54.406;18.556;2022-07-22T03:49:07;18.90;99.90
20246;DHT22;10281;54.406;18.556;2022-07-22T03:51:34;18.90;99.90
20246;DHT22;10281;54.406;18.556;2022-07-22T03:54:01;18.90;99.90
20246;DHT22;10281;54.406;18.556;2022-07-22T03:56:27;19.00;99.90
20246;DHT22;10281;54.406;18.556;2022-07-22T03:58:54;19.10;99.90
20246;DHT22;10281;54.406;18.556;2022-07-22T04:01:20;19.20;99.90
20246;DHT22;10281;54.406;18.556;2022-07-22T04:03:47;19.20;99.90
20246;DHT22;10281;54.406;18.556;2022-07-22T04:06:15;19.40;99.90
20246;DHT22;10281;54.406;18.556;2022-07-22T04:08:42;19.50;99.90
20246;DHT22;10281;54.406;18.556;2022-07-22T04:11:09;19.60;99.90
20246;DHT22;10281;54.406;18.556;2022-07-22T04:13:36;19.60;99.90
20246;DHT22;10281;54.406;18.556;2022-07-22T04:16:02;19.70;99.90
20246;DHT22;10281;54.406;18.556;2022-07-22T04:18:31;19.80;99.90
20246;DHT22;10281;54.406;18.556;2022-07-22T04:20:58;19.80;99.90
20246;DHT22;10281;54.406;18.556;2022-07-22T04:23:25;19.90;99.90
20246;DHT22;10281;54.406;18.556;2022-07-22T04:25:52;20.00;99.90
20246;DHT22;10281;54.406;18.556;2022-07-22T04:28:18;20.10;99.90
20246;DHT22;10281;54.406;18.556;2022-07-22T04:30:45;20.10;99.90
20246;DHT22;10281;54.406;18.556;2022-07-22T04:33:11;20.20;99.90
20246;DHT22;10281;54.406;18.556;2022-07-22T04:35:38;20.30;99.90
20246;DHT22;10281;54.406;18.556;2022-07-22T04:38:05;20.40;99.90
20246;DHT22;10281;54.406;18.556;2022-07-22T04:40:31;20.60;99.90
20246;DHT22;10281;54.406;18.556;2022-07-22T04:42:58;20.70;99.90
20246;DHT22;10281;54.406;18.556;2022-07-22T04:45:25;20.90;99.90
20246;DHT22;10281;54.406;18.556;2022-07-22T04:47:51;21.00;99.90
20246;DHT22;10281;54.406;18.556;2022-07-22T04:50:18;21.10;99.90
20246;DHT22;10281;54.406;18.556;2022-07-22T04:52:45;21.20;99.90
20246;DHT22;10281;54.406;18.556;2022-07-22T04:55:11;21.30;99.90
20246;DHT22;10281;54.406;18.556;2022-07-22T04:57:38;21.40;99.90
20246;DHT22;10281;54.406;18.556;2022-07-22T05:00:05;21.40;99.90
20246;DHT22;10281;54.406;18.556;2022-07-22T05:02:33;21.40;99.90
20246;DHT22;10281;54.406;18.556;2022-07-22T05:04:59;21.40;99.90
20246;DHT22;10281;54.406;18.556;2022-07-22T05:07:26;21.40;99.90
20246;DHT22;10281;54.406;18.556;2022-07-22T05:09:52;21.50;99.90
20246;DHT22;10281;54.406;18.556;2022-07-22T05:12:19;21.50;99.90
20246;DHT22;10281;54.406;18.556;2022-07-22T05:14:46;21.60;99.90
20246;DHT22;10281;54.406;18.556;2022-07-22T05:17:12;21.70;99.90
20246;DHT22;10281;54.406;18.556;2022-07-22T05:19:40;21.80;99.90
20246;DHT22;10281;54.406;18.556;2022-07-22T05:22:07;21.80;99.90
20246;DHT22;10281;54.406;18.556;2022-07-22T05:24:35;21.90;99.90
20246;DHT22;10281;54.406;18.556;2022-07-22T05:27:02;22.00;99.90
20246;DHT22;10281;54.406;18.556;2022-07-22T05:29:29;22.00;99.90
20246;DHT22;10281;54.406;18.556;2022-07-22T05:31:56;22.10;99.90
20246;DHT22;10281;54.406;18.556;2022-07-22T05:34:23;22.10;99.90
20246;DHT22;10281;54.406;18.556;2022-07-22T05:36:49;22.10;99.90
20246;DHT22;10281;54.406;18.556;2022-07-22T05:39:16;22.20;99.90
20246;DHT22;10281;54.406;18.556;2022-07-22T05:41:43;22.30;99.90
20246;DHT22;10281;54.406;18.556;2022-07-22T05:44:09;22.30;99.90
20246;DHT22;10281;54.406;18.556;2022-07-22T05:46:36;22.40;99.90
20246;DHT22;10281;54.406;18.556;2022-07-22T05:49:03;22.30;99.90
20246;DHT22;10281;54.406;18.556;2022-07-22T05:51:30;22.20;99.90
20246;DHT22;10281;54.406;18.556;2022-07-22T05:53:56;22.20;99.90
20246;DHT22;10281;54.406;18.556;2022-07-22T05:56:23;22.10;99.90
20246;DHT22;10281;54.406;18.556;2022-07-22T05:58:49;21.80;99.90
20246;DHT22;10281;54.406;18.556;2022-07-22T06:01:16;21.60;99.90
20246;DHT22;10281;54.406;18.556;2022-07-22T06:03:43;21.40;99.90
20246;DHT22;10281;54.406;18.556;2022-07-22T06:06:10;21.20;99.90
20246;DHT22;10281;54.406;18.556;2022-07-22T06:08:37;21.20;99.90
20246;DHT22;10281;54.406;18.556;2022-07-22T06:11:04;21.10;99.90
20246;DHT22;10281;54.406;18.556;2022-07-22T06:13:30;21.10;99.90
20246;DHT22;10281;54.406;18.556;2022-07-22T06:15:58;21.00;99.90
20246;DHT22;10281;54.406;18.556;2022-07-22T06:18:24;21.10;99.90
20246;DHT22;10281;54.406;18.556;2022-07-22T06:20:52;21.00;99.90
20246;DHT22;10281;54.406;18.556;2022-07-22T06:23:18;21.00;99.90
20246;DHT22;10281;54.406;18.556;2022-07-22T06:25:45;21.10;99.90
20246;DHT22;10281;54.406;18.556;2022-07-22T06:28:12;21.10;99.90
20246;DHT22;10281;54.406;18.556;2022-07-22T06:30:39;21.10;99.90
20246;DHT22;10281;54.406;18.556;2022-07-22T06:33:05;21.10;99.90
20246;DHT22;10281;54.406;18.556;2022-07-22T06:35:32;21.10;99.90
20246;DHT22;10281;54.406;18.556;2022-07-22T06:37:59;21.10;99.90
20246;DHT22;10281;54.406;18.556;2022-07-22T06:40:26;21.10;99.90
20246;DHT22;10281;54.406;18.556;2022-07-22T06:42:52;21.20;99.90
20246;DHT22;10281;54.406;18.556;2022-07-22T06:45:19;21.10;99.90
20246;DHT22;10281;54.406;18.556;2022-07-22T06:47:45;21.20;99.90
20246;DHT22;10281;54.406;18.556;2022-07-22T06:50:13;21.20;99.90
20246;DHT22;10281;54.406;18.556;2022-07-22T06:52:40;21.20;99.90
20246;DHT22;10281;54.406;18.556;2022-07-22T06:55:09;21.30;99.90
20246;DHT22;10281;54.406;18.556;2022-07-22T06:57:36;21.40;99.90
20246;DHT22;10281;54.406;18.556;2022-07-22T07:00:05;21.40;99.90
20246;DHT22;10281;54.406;18.556;2022-07-22T07:02:33;21.40;99.90
20246;DHT22;10281;54.406;18.556;2022-07-22T07:05:00;21.50;99.90
20246;DHT22;10281;54.406;18.556;2022-07-22T07:07:26;21.50;99.90
20246;DHT22;10281;54.406;18.556;2022-07-22T07:09:53;21.50;99.90
20246;DHT22;10281;54.406;18.556;2022-07-22T07:12:20;21.50;99.90
20246;DHT22;10281;54.406;18.556;2022-07-22T07:14:47;21.50;99.90
20246;DHT22;10281;54.406;18.556;2022-07-22T07:17:13;21.50;99.90
20246;DHT22;10281;54.406;18.556;2022-07-22T07:19:41;21.60;99.90
20246;DHT22;10281;54.406;18.556;2022-07-22T07:22:08;21.60;99.90
20246;DHT22;10281;54.406;18.556;2022-07-22T07:24:34;21.60;99.90
20246;DHT22;10281;54.406;18.556;2022-07-22T07:27:01;21.50;99.90
20246;DHT22;10281;54.406;18.556;2022-07-22T07:29:28;21.50;99.90
20246;DHT22;10281;54.406;18.556;2022-07-22T07:31:54;21.40;99.90
20246;DHT22;10281;54.406;18.556;2022-07-22T07:34:21;21.50;99.90
20246;DHT22;10281;54.406;18.556;2022-07-22T07:36:47;21.50;99.90
20246;DHT22;10281;54.406;18.556;2022-07-22T07:39:14;21.50;99.90
20246;DHT22;10281;54.406;18.556;2022-07-22T07:41:41;21.50;99.90
20246;DHT22;10281;54.406;18.556;2022-07-22T07:44:08;21.50;99.90
20246;DHT22;10281;54.406;18.556;2022-07-22T07:46:35;21.50;99.90
20246;DHT22;10281;54.406;18.556;2022-07-22T07:49:01;21.50;99.90
20246;DHT22;10281;54.406;18.556;2022-07-22T07:51:28;21.50;99.90
20246;DHT22;10281;54.406;18.556;2022-07-22T07:53:55;21.50;99.90
20246;DHT22;10281;54.406;18.556;2022-07-22T07:56:21;21.50;99.90
20246;DHT22;10281;54.406;18.556;2022-07-22T07:58:48;21.60;99.90
20246;DHT22;10281;54.406;18.556;2022-07-22T08:01:15;21.60;99.90
20246;DHT22;10281;54.406;18.556;2022-07-22T08:03:42;21.60;99.90
20246;DHT22;10281;54.406;18.556;2022-07-22T08:06:08;21.60;99.90
20246;DHT22;10281;54.406;18.556;2022-07-22T08:08:35;21.60;99.90
20246;DHT22;10281;54.406;18.556;2022-07-22T08:11:02;21.60;99.90
20246;DHT22;10281;54.406;18.556;2022-07-22T08:13:29;21.70;99.90
20246;DHT22;10281;54.406;18.556;2022-07-22T08:15:55;21.60;99.90
20246;DHT22;10281;54.406;18.556;2022-07-22T08:18:22;21.60;99.90
20246;DHT22;10281;54.406;18.556;2022-07-22T08:20:49;21.60;99.90
20246;DHT22;10281;54.406;18.556;2022-07-22T08:23:16;21.70;99.90
20246;DHT22;10281;54.406;18.556;2022-07-22T08:25:43;21.70;99.90
20246;DHT22;10281;54.406;18.556;2022-07-22T08:28:10;21.70;99.90
20246;DHT22;10281;54.406;18.556;2022-07-22T08:30:36;21.70;99.90
20246;DHT22;10281;54.406;18.556;2022-07-22T08:33:03;21.80;99.90
20246;DHT22;10281;54.406;18.556;2022-07-22T08:35:30;21.90;99.90
20246;DHT22;10281;54.406;18.556;2022-07-22T08:37:57;21.90;99.90
20246;DHT22;10281;54.406;18.556;2022-07-22T08:40:23;22.00;99.90
20246;DHT22;10281;54.406;18.556;2022-07-22T08:42:52;22.00;99.90
20246;DHT22;10281;54.406;18.556;2022-07-22T08:45:19;22.10;99.90
20246;DHT22;10281;54.406;18.556;2022-07-22T08:47:49;22.20;99.90
20246;DHT22;10281;54.406;18.556;2022-07-22T08:50:16;22.40;99.90
20246;DHT22;10281;54.406;18.556;2022-07-22T08:52:43;22.50;99.90
20246;DHT22;10281;54.406;18.556;2022-07-22T08:55:10;22.60;99.90
20246;DHT22;10281;54.406;18.556;2022-07-22T08:57:37;22.70;99.90
20246;DHT22;10281;54.406;18.556;2022-07-22T09:00:10;22.80;99.90
20246;DHT22;10281;54.406;18.556;2022-07-22T09:02:39;22.80;99.90
20246;DHT22;10281;54.406;18.556;2022-07-22T09:05:09;23.00;99.90
20246;DHT22;10281;54.406;18.556;2022-07-22T09:07:37;23.10;99.90
20246;DHT22;10281;54.406;18.556;2022-07-22T09:10:08;23.20;99.90
20246;DHT22;10281;54.406;18.556;2022-07-22T09:12:55;23.30;99.90
20246;DHT22;10281;54.406;18.556;2022-07-22T09:15:27;23.40;99.90
20246;DHT22;10281;54.406;18.556;2022-07-22T09:17:54;23.40;99.90
20246;DHT22;10281;54.406;18.556;2022-07-22T09:20:21;23.50;99.90
20246;DHT22;10281;54.406;18.556;2022-07-22T09:22:49;23.50;99.90
20246;DHT22;10281;54.406;18.556;2022-07-22T09:25:22;23.50;99.90
20246;DHT22;10281;54.406;18.556;2022-07-22T09:27:50;23.60;99.90
20246;DHT22;10281;54.406;18.556;2022-07-22T09:30:22;23.60;99.90
20246;DHT22;10281;54.406;18.556;2022-07-22T09:32:49;23.70;99.90
20246;DHT22;10281;54.406;18.556;2022-07-22T09:35:16;23.70;99.90
20246;DHT22;10281;54.406;18.556;2022-07-22T09:37:51;23.80;99.90
20246;DHT22;10281;54.406;18.556;2022-07-22T09:40:21;23.80;99.90
20246;DHT22;10281;54.406;18.556;2022-07-22T09:42:51;23.70;99.90
20246;DHT22;10281;54.406;18.556;2022-07-22T09:45:20;23.80;99.90
20246;DHT22;10281;54.406;18.556;2022-07-22T09:47:47;23.80;99.90
20246;DHT22;10281;54.406;18.556;2022-07-22T09:50:17;23.80;99.90
20246;DHT22;10281;54.406;18.556;2022-07-22T09:52:45;23.90;99.90
20246;DHT22;10281;54.406;18.556;2022-07-22T09:55:13;23.90;99.90
20246;DHT22;10281;54.406;18.556;2022-07-22T09:57:41;24.10;99.90
20246;DHT22;10281;54.406;18.556;2022-07-22T10:00:08;24.10;99.90
20246;DHT22;10281;54.406;18.556;2022-07-22T10:02:55;24.20;99.90
20246;DHT22;10281;54.406;18.556;2022-07-22T10:05:25;24.20;99.90
20246;DHT22;10281;54.406;18.556;2022-07-22T10:07:53;24.40;99.90
20246;DHT22;10281;54.406;18.556;2022-07-22T10:10:23;24.50;99.90
20246;DHT22;10281;54.406;18.556;2022-07-22T10:12:52;24.50;99.90
20246;DHT22;10281;54.406;18.556;2022-07-22T10:15:20;24.60;99.90
20246;DHT22;10281;54.406;18.556;2022-07-22T10:17:49;24.60;99.90
20246;DHT22;10281;54.406;18.556;2022-07-22T10:20:21;24.60;99.90
20246;DHT22;10281;54.406;18.556;2022-07-22T10:22:54;24.60;99.90
20246;DHT22;10281;54.406;18.556;2022-07-22T10:25:23;24.60;99.90
20246;DHT22;10281;54.406;18.556;2022-07-22T10:27:59;24.70;99.90
20246;DHT22;10281;54.406;18.556;2022-07-22T10:30:28;25.00;99.90
20246;DHT22;10281;54.406;18.556;2022-07-22T10:33:01;25.10;99.90
20246;DHT22;10281;54.406;18.556;2022-07-22T10:35:29;25.10;99.90
20246;DHT22;10281;54.406;18.556;2022-07-22T10:37:58;25.20;99.90
20246;DHT22;10281;54.406;18.556;2022-07-22T10:40:27;25.40;99.90
20246;DHT22;10281;54.406;18.556;2022-07-22T10:43:05;25.50;99.90
20246;DHT22;10281;54.406;18.556;2022-07-22T10:45:39;25.60;99.90
20246;DHT22;10281;54.406;18.556;2022-07-22T10:48:10;25.60;99.90
20246;DHT22;10281;54.406;18.556;2022-07-22T10:50:42;25.60;99.90
20246;DHT22;10281;54.406;18.556;2022-07-22T10:53:11;25.60;99.90
20246;DHT22;10281;54.406;18.556;2022-07-22T11:00:51;25.40;99.90
20246;DHT22;10281;54.406;18.556;2022-07-22T11:03:24;25.30;99.90
20246;DHT22;10281;54.406;18.556;2022-07-22T11:05:51;25.30;99.90
20246;DHT22;10281;54.406;18.556;2022-07-22T11:08:19;25.40;99.90
20246;DHT22;10281;54.406;18.556;2022-07-22T11:10:47;25.50;99.90
20246;DHT22;10281;54.406;18.556;2022-07-22T11:15:53;25.50;99.90
20246;DHT22;10281;54.406;18.556;2022-07-22T11:18:20;25.70;99.90
20246;DHT22;10281;54.406;18.556;2022-07-22T11:20:48;25.70;99.90
20246;DHT22;10281;54.406;18.556;2022-07-22T11:23:16;25.80;99.90
20246;DHT22;10281;54.406;18.556;2022-07-22T11:25:43;26.10;99.90
20246;DHT22;10281;54.406;18.556;2022-07-22T11:28:09;26.20;99.90
20246;DHT22;10281;54.406;18.556;2022-07-22T11:30:37;26.20;99.90
20246;DHT22;10281;54.406;18.556;2022-07-22T11:33:03;26.30;99.90
20246;DHT22;10281;54.406;18.556;2022-07-22T11:35:30;26.20;99.90
20246;DHT22;10281;54.406;18.556;2022-07-22T11:37:57;26.20;99.90
20246;DHT22;10281;54.406;18.556;2022-07-22T11:40:23;26.20;99.90
20246;DHT22;10281;54.406;18.556;2022-07-22T11:45:26;26.00;99.90
20246;DHT22;10281;54.406;18.556;2022-07-22T11:47:53;25.90;99.90
20246;DHT22;10281;54.406;18.556;2022-07-22T11:52:53;25.60;99.90
20246;DHT22;10281;54.406;18.556;2022-07-22T11:55:21;25.20;99.90
20246;DHT22;10281;54.406;18.556;2022-07-22T11:57:48;25.00;99.90
20246;DHT22;10281;54.406;18.556;2022-07-22T12:00:16;24.90;99.90
20246;DHT22;10281;54.406;18.556;2022-07-22T12:02:43;24.90;99.90
20246;DHT22;10281;54.406;18.556;2022-07-22T12:05:09;24.80;99.90
20246;DHT22;10281;54.406;18.556;2022-07-22T12:07:36;24.80;99.90
20246;DHT22;10281;54.406;18.556;2022-07-22T12:10:04;24.90;99.90
20246;DHT22;10281;54.406;18.556;2022-07-22T12:12:38;25.00;99.90
20246;DHT22;10281;54.406;18.556;2022-07-22T12:15:05;25.10;99.90
20246;DHT22;10281;54.406;18.556;2022-07-22T12:17:32;25.10;99.90
20246;DHT22;10281;54.406;18.556;2022-07-22T12:22:34;25.40;99.90
20246;DHT22;10281;54.406;18.556;2022-07-22T12:25:03;25.50;99.90
20246;DHT22;10281;54.406;18.556;2022-07-22T12:27:29;25.40;99.90
20246;DHT22;10281;54.406;18.556;2022-07-22T12:29:56;25.50;99.90
20246;DHT22;10281;54.406;18.556;2022-07-22T12:32:29;25.40;99.90
20246;DHT22;10281;54.406;18.556;2022-07-22T12:35:01;25.40;99.90
20246;DHT22;10281;54.406;18.556;2022-07-22T12:37:33;25.50;99.90
20246;DHT22;10281;54.406;18.556;2022-07-22T12:40:09;25.50;99.90
20246;DHT22;10281;54.406;18.556;2022-07-22T12:42:42;25.50;99.90
20246;DHT22;10281;54.406;18.556;2022-07-22T12:45:14;25.60;99.90
20246;DHT22;10281;54.406;18.556;2022-07-22T12:47:51;25.70;99.90
20246;DHT22;10281;54.406;18.556;2022-07-22T12:50:29;25.80;99.90
20246;DHT22;10281;54.406;18.556;2022-07-22T12:53:00;25.90;99.90
20246;DHT22;10281;54.406;18.556;2022-07-22T12:55:32;25.90;99.90
20246;DHT22;10281;54.406;18.556;2022-07-22T12:57:58;26.00;99.90
20246;DHT22;10281;54.406;18.556;2022-07-22T13:00:27;25.90;99.90
20246;DHT22;10281;54.406;18.556;2022-07-22T13:02:54;26.00;99.90
20246;DHT22;10281;54.406;18.556;2022-07-22T13:05:23;26.00;99.90
20246;DHT22;10281;54.406;18.556;2022-07-22T13:07:50;26.00;99.90
20246;DHT22;10281;54.406;18.556;2022-07-22T13:10:21;26.10;99.90
20246;DHT22;10281;54.406;18.556;2022-07-22T13:12:49;26.00;99.90
20246;DHT22;10281;54.406;18.556;2022-07-22T13:15:16;25.90;99.90
20246;DHT22;10281;54.406;18.556;2022-07-22T13:17:43;25.70;99.90
20246;DHT22;10281;54.406;18.556;2022-07-22T13:20:12;25.80;99.90
20246;DHT22;10281;54.406;18.556;2022-07-22T13:22:40;25.80;99.90
20246;DHT22;10281;54.406;18.556;2022-07-22T13:25:07;25.80;99.90
20246;DHT22;10281;54.406;18.556;2022-07-22T13:27:34;25.70;99.90
20246;DHT22;10281;54.406;18.556;2022-07-22T13:30:01;25.60;99.90
20246;DHT22;10281;54.406;18.556;2022-07-22T13:32:27;25.50;99.90
20246;DHT22;10281;54.406;18.556;2022-07-22T13:34:54;25.30;99.90
20246;DHT22;10281;54.406;18.556;2022-07-22T13:37:21;25.30;99.90
20246;DHT22;10281;54.406;18.556;2022-07-22T13:39:48;25.00;99.90
20246;DHT22;10281;54.406;18.556;2022-07-22T13:42:15;25.00;99.90
20246;DHT22;10281;54.406;18.556;2022-07-22T13:44:45;24.80;99.90
20246;DHT22;10281;54.406;18.556;2022-07-22T13:47:12;24.70;99.90
20246;DHT22;10281;54.406;18.556;2022-07-22T13:49:39;24.60;99.90
20246;DHT22;10281;54.406;18.556;2022-07-22T13:52:06;24.60;99.90
20246;DHT22;10281;54.406;18.556;2022-07-22T13:54:33;24.40;99.90
20246;DHT22;10281;54.406;18.556;2022-07-22T13:57:00;24.20;99.90
20246;DHT22;10281;54.406;18.556;2022-07-22T13:59:28;24.00;99.90
20246;DHT22;10281;54.406;18.556;2022-07-22T14:01:56;24.00;99.90
20246;DHT22;10281;54.406;18.556;2022-07-22T14:04:24;23.90;99.90
20246;DHT22;10281;54.406;18.556;2022-07-22T14:06:51;23.80;99.90
20246;DHT22;10281;54.406;18.556;2022-07-22T14:09:18;23.80;99.90
20246;DHT22;10281;54.406;18.556;2022-07-22T14:11:45;23.80;99.90
20246;DHT22;10281;54.406;18.556;2022-07-22T14:14:11;23.90;99.90
20246;DHT22;10281;54.406;18.556;2022-07-22T14:16:39;24.00;99.90
20246;DHT22;10281;54.406;18.556;2022-07-22T14:19:10;24.10;99.90
20246;DHT22;10281;54.406;18.556;2022-07-22T14:21:39;24.10;99.90
20246;DHT22;10281;54.406;18.556;2022-07-22T14:24:08;24.00;99.90
20246;DHT22;10281;54.406;18.556;2022-07-22T14:26:35;24.20;99.90
20246;DHT22;10281;54.406;18.556;2022-07-22T14:29:02;24.20;99.90
20246;DHT22;10281;54.406;18.556;2022-07-22T14:31:28;24.20;99.90
20246;DHT22;10281;54.406;18.556;2022-07-22T14:33:55;24.20;99.90
20246;DHT22;10281;54.406;18.556;2022-07-22T14:36:22;24.20;99.90
20246;DHT22;10281;54.406;18.556;2022-07-22T14:38:49;24.10;99.90
20246;DHT22;10281;54.406;18.556;2022-07-22T14:41:17;24.20;99.90
20246;DHT22;10281;54.406;18.556;2022-07-22T14:43:43;24.20;99.90
20246;DHT22;10281;54.406;18.556;2022-07-22T14:46:10;24.20;99.90
20246;DHT22;10281;54.406;18.556;2022-07-22T14:48:39;24.20;99.90
20246;DHT22;10281;54.406;18.556;2022-07-22T14:51:07;24.10;99.90
20246;DHT22;10281;54.406;18.556;2022-07-22T14:53:33;24.10;99.90
20246;DHT22;10281;54.406;18.556;2022-07-22T14:56:00;24.10;99.90
20246;DHT22;10281;54.406;18.556;2022-07-22T14:58:27;24.10;99.90
20246;DHT22;10281;54.406;18.556;2022-07-22T15:00:53;24.10;99.90
20246;DHT22;10281;54.406;18.556;2022-07-22T15:03:20;24.10;99.90
20246;DHT22;10281;54.406;18.556;2022-07-22T15:05:47;24.20;99.90
20246;DHT22;10281;54.406;18.556;2022-07-22T15:08:13;24.20;99.90
20246;DHT22;10281;54.406;18.556;2022-07-22T15:10:40;24.10;99.90
20246;DHT22;10281;54.406;18.556;2022-07-22T15:13:07;24.10;99.90
20246;DHT22;10281;54.406;18.556;2022-07-22T15:15:33;24.10;99.90
20246;DHT22;10281;54.406;18.556;2022-07-22T15:18:01;24.10;99.90
20246;DHT22;10281;54.406;18.556;2022-07-22T15:20:28;24.10;99.90
20246;DHT22;10281;54.406;18.556;2022-07-22T15:22:55;24.10;99.90
20246;DHT22;10281;54.406;18.556;2022-07-22T15:25:21;24.10;99.90
20246;DHT22;10281;54.406;18.556;2022-07-22T15:27:50;24.10;99.90
20246;DHT22;10281;54.406;18.556;2022-07-22T15:30:17;24.00;99.90
20246;DHT22;10281;54.406;18.556;2022-07-22T15:32:45;23.90;99.90